메인 페이지
METAR-TAF:

METAR-TAF

공항 :

하르툼 국제공항

하르툼, 수단

위도: 15-36N, 경도: 032-33E, 고도: 382m

현재 날씨관측

예보는 32분 전, 00:30시(UTC)에 발표되었습니다.
15kt
온도 20°C
습도 26%
기압 1016 hPa
시정 10km 이상
1500m 미만 상공 구름 및 적란운 없음

METAR: HSSS 100030Z 35015KT CAVOK 20/00 Q1016 NOSIG

시각: 04:02 (01:02 UTC)

예보

예보는 2 시간 2분 전, 23:00시(UTC)에 발표되었습니다.
예보 대상 시간: 10일 00시부터 11일 06시까지 (UTC)
북북서10kt, 순간 최대 풍속 20kt
시정 10km 이상
1500m 미만 상공 구름 및 적란운 없음
일시적
10일 04시부터 10일 08시까지 (UTC)
시정: 6000m

TAF: HSSS 092300Z 1000/1106 34010G20KT CAVOK TEMPO 1004/1008 6000

4,000개 이상의 공항 관측 자료 및 예보 (METAR 및 TAF 보고).

지도상에서 검색 가능한 기상관측소가 노란 점과 빨간 점으로 표시되어 있습니다.

기상관측소 명을 보려면 표시 위로 마우스를 이동하세요.

날씨 관측과 예보를 보려면 클릭하세요.

지도 변경 : 확대하려면 엑스 표시가 있는 녹색 버튼, 축소하려면 빼기 표시가 있는 녹색 버튼, 다음 페이지의 지도를 보려면 녹색 화살표를 클릭하세요.


METAR-TAF: